createdAt,value
2022-09-28T00:01:53.069Z,7.63
2022-09-28T00:08:54.936Z,6.22
2022-09-28T00:16:07.477Z,7.85
2022-09-28T00:23:09.095Z,5.43
2022-09-28T00:30:10.714Z,8.27
2022-09-28T00:37:13.118Z,6.68
2022-09-28T00:44:26.827Z,7.75
2022-09-28T00:51:28.448Z,8.68
2022-09-28T00:58:31.564Z,5.72
2022-09-28T01:05:33.869Z,6.63
2022-09-28T01:12:35.626Z,6.53
2022-09-28T01:19:46.508Z,7.85
2022-09-28T01:27:20.354Z,6.50
2022-09-28T01:34:36.281Z,6.78
2022-09-28T01:41:40.000Z,7.32
2022-09-28T01:48:53.599Z,6.07
2022-09-28T01:55:57.828Z,6.60
2022-09-28T02:03:07.869Z,6.10
2022-09-28T02:10:19.898Z,6.07
2022-09-28T02:17:21.467Z,6.78
2022-09-28T02:24:46.127Z,7.75
2022-09-28T02:31:55.028Z,6.53
2022-09-28T02:38:57.217Z,8.88
2022-09-28T02:46:06.639Z,8.63
2022-09-28T02:53:39.640Z,8.15
2022-09-28T03:00:51.418Z,9.20
2022-09-28T03:07:57.546Z,7.80
2022-09-28T03:15:26.675Z,8.13
2022-09-28T03:22:29.664Z,10.00
2022-09-28T03:29:33.035Z,9.35
2022-09-28T03:36:39.675Z,9.43
2022-09-28T03:43:41.326Z,8.82
2022-09-28T03:50:43.094Z,7.97
2022-09-28T03:57:44.779Z,8.98
2022-09-28T04:04:46.387Z,8.85
2022-09-28T04:12:03.218Z,8.18
2022-09-28T04:19:07.710Z,10.30
2022-09-28T04:26:25.433Z,8.48
2022-09-28T04:33:27.055Z,9.38
2022-09-28T04:40:29.015Z,11.20
2022-09-28T04:47:30.802Z,8.15
2022-09-28T04:54:51.073Z,10.15
2022-09-28T05:01:54.046Z,9.68
2022-09-28T05:09:14.818Z,11.07
2022-09-28T05:16:17.024Z,10.15
2022-09-28T05:23:45.707Z,8.98
2022-09-28T05:30:47.640Z,9.43
2022-09-28T05:38:04.383Z,11.85
2022-09-28T05:45:06.506Z,9.27
2022-09-28T05:52:08.543Z,9.98
2022-09-28T05:59:13.418Z,8.98
2022-09-28T06:06:16.125Z,9.88
2022-09-28T06:13:19.932Z,9.55
2022-09-28T06:20:21.634Z,10.27
2022-09-28T06:27:43.199Z,10.23
2022-09-28T06:34:45.368Z,10.90
2022-09-28T06:41:47.872Z,13.75
2022-09-28T06:48:52.837Z,10.25
2022-09-28T06:56:10.322Z,12.68
2022-09-28T07:03:17.357Z,11.70
2022-09-28T07:10:33.590Z,10.93
2022-09-28T07:18:02.416Z,13.38
2022-09-28T07:25:06.709Z,10.25
2022-09-28T07:32:26.893Z,12.65
2022-09-28T07:40:07.895Z,11.55
2022-09-28T07:47:12.593Z,11.52
2022-09-28T07:54:52.066Z,9.93
2022-09-28T08:02:20.203Z,9.27
2022-09-28T08:09:22.168Z,9.95
2022-09-28T08:16:47.491Z,11.05
2022-09-28T08:24:12.828Z,11.65
2022-09-28T08:31:14.661Z,9.63
2022-09-28T08:38:36.256Z,9.77
2022-09-28T08:46:10.338Z,9.77
2022-09-28T08:53:52.542Z,11.60
2022-09-28T09:00:59.187Z,10.90
2022-09-28T09:08:09.036Z,10.48
2022-09-28T09:15:32.861Z,10.73
2022-09-28T09:22:59.800Z,11.00
2022-09-28T09:30:20.206Z,10.98
2022-09-28T09:37:35.690Z,8.05
2022-09-28T09:45:14.090Z,7.93
2022-09-28T09:52:57.778Z,6.80
2022-09-28T09:59:59.558Z,4.38
2022-09-28T10:07:50.324Z,7.80
2022-09-28T10:14:52.403Z,5.55
2022-09-28T10:21:54.418Z,3.60
2022-09-28T10:29:01.707Z,4.65
2022-09-28T10:36:05.072Z,4.95
2022-09-28T10:43:16.334Z,6.25
2022-09-28T10:50:22.739Z,3.85
2022-09-28T10:57:36.804Z,4.67
2022-09-28T11:04:42.928Z,4.80
2022-09-28T11:11:44.614Z,4.15
2022-09-28T11:18:46.312Z,8.73
2022-09-28T11:25:58.993Z,5.45
2022-09-28T11:33:06.995Z,5.50
2022-09-28T11:40:43.255Z,6.70
2022-09-28T11:48:08.084Z,4.85
2022-09-28T11:55:33.666Z,7.22
2022-09-28T12:02:39.588Z,8.13
2022-09-28T12:09:50.475Z,6.50
2022-09-28T12:17:06.677Z,4.57
2022-09-28T12:24:33.564Z,6.30
2022-09-28T12:31:59.623Z,4.85
2022-09-28T12:39:40.883Z,3.30
2022-09-28T12:47:09.569Z,2.78
2022-09-28T12:54:36.680Z,5.72
2022-09-28T13:02:14.839Z,3.30
2022-09-28T13:09:26.221Z,3.78
2022-09-28T13:16:34.103Z,2.38
2022-09-28T13:23:39.205Z,3.95
2022-09-28T13:30:40.852Z,3.80
2022-09-28T13:37:42.573Z,6.47
2022-09-28T13:45:05.551Z,7.22
2022-09-28T13:52:13.644Z,2.95
2022-09-28T13:59:23.142Z,5.65
2022-09-28T14:06:31.698Z,5.33
2022-09-28T14:13:42.603Z,3.92
2022-09-28T14:21:09.206Z,6.50
2022-09-28T14:28:23.336Z,4.03
2022-09-28T14:35:38.671Z,5.15
2022-09-28T14:42:40.314Z,2.50
2022-09-28T14:49:45.547Z,4.82
2022-09-28T14:56:53.073Z,6.00
2022-09-28T15:03:55.749Z,5.93
2022-09-28T15:10:57.388Z,4.20
2022-09-28T15:18:33.221Z,7.22
2022-09-28T15:25:35.852Z,5.40
2022-09-28T15:32:37.450Z,4.90
2022-09-28T15:39:39.032Z,7.13
2022-09-28T15:46:42.412Z,9.50
2022-09-28T15:54:00.985Z,6.53
2022-09-28T16:01:35.745Z,6.45
2022-09-28T16:08:48.786Z,9.13
2022-09-28T16:15:58.785Z,5.97
2022-09-28T16:23:05.981Z,6.43
2022-09-28T16:30:21.578Z,5.80
2022-09-28T16:37:31.559Z,6.53
2022-09-28T16:44:35.862Z,6.70
2022-09-28T16:51:40.023Z,7.03
2022-09-28T16:58:42.427Z,7.82
2022-09-28T17:05:44.114Z,7.03
2022-09-28T17:12:45.930Z,7.53
2022-09-28T17:19:47.539Z,7.95
2022-09-28T17:26:49.762Z,10.63
2022-09-28T17:33:52.059Z,9.25
2022-09-28T17:40:53.680Z,12.75
2022-09-28T17:47:55.544Z,14.15
2022-09-28T17:54:57.089Z,13.90
2022-09-28T18:02:02.155Z,11.77
2022-09-28T18:09:04.396Z,13.48
2022-09-28T18:16:06.398Z,10.88
2022-09-28T18:23:08.017Z,10.00
2022-09-28T18:30:09.798Z,7.85
2022-09-28T18:37:11.390Z,9.93
2022-09-28T18:44:12.944Z,8.65
2022-09-28T18:51:14.547Z,8.48
2022-09-28T18:58:16.114Z,9.65
2022-09-28T19:05:18.739Z,8.52
2022-09-28T19:12:20.325Z,9.48
2022-09-28T19:19:21.967Z,8.60
2022-09-28T19:26:25.359Z,9.10
2022-09-28T19:33:27.089Z,10.57
2022-09-28T19:40:28.657Z,11.48
2022-09-28T19:47:30.467Z,10.52
2022-09-28T19:54:36.518Z,10.68
2022-09-28T20:01:38.565Z,9.95
2022-09-28T20:08:42.618Z,8.18
2022-09-28T20:15:45.724Z,10.68
2022-09-28T20:22:47.343Z,7.57
2022-09-28T20:29:48.961Z,10.40
2022-09-28T20:36:50.620Z,9.27
2022-09-28T20:43:53.541Z,10.25
2022-09-28T20:50:59.697Z,9.32
2022-09-28T20:58:04.437Z,11.52
2022-09-28T21:05:06.812Z,9.93
2022-09-28T21:12:09.120Z,12.50
2022-09-28T21:19:11.099Z,11.18
2022-09-28T21:26:29.031Z,9.55
2022-09-28T21:33:31.118Z,12.35
2022-09-28T21:40:32.775Z,9.98
2022-09-28T21:47:34.352Z,9.13
2022-09-28T21:54:37.269Z,9.02
2022-09-28T22:01:42.507Z,9.18
2022-09-28T22:08:44.605Z,8.80
2022-09-28T22:15:52.721Z,10.43
2022-09-28T22:22:54.300Z,9.80
2022-09-28T22:29:55.841Z,8.07
2022-09-28T22:37:02.883Z,8.57
2022-09-28T22:44:04.500Z,10.95
2022-09-28T22:51:06.485Z,7.95
2022-09-28T22:58:08.056Z,8.80
2022-09-28T23:05:10.312Z,10.27
2022-09-28T23:12:11.855Z,9.13
2022-09-28T23:19:13.429Z,8.55
2022-09-28T23:26:23.781Z,9.27
2022-09-28T23:33:25.367Z,8.90
2022-09-28T23:40:27.004Z,8.43
2022-09-28T23:47:28.599Z,10.18
2022-09-28T23:54:30.148Z,10.05
